createdAt,value
2018-03-11T00:02:06.196Z,99498
2018-03-11T00:04:34.102Z,99503
2018-03-11T00:07:02.001Z,99504
2018-03-11T00:09:29.900Z,99496
2018-03-11T00:11:57.804Z,99504
2018-03-11T00:14:25.705Z,99500
2018-03-11T00:16:53.600Z,99507
2018-03-11T00:19:21.508Z,99492
2018-03-11T00:21:49.680Z,99495
2018-03-11T00:24:17.580Z,99504
2018-03-11T00:26:45.484Z,99508
2018-03-11T00:29:13.373Z,99499
2018-03-11T00:31:41.276Z,99499
2018-03-11T00:34:09.193Z,99493
2018-03-11T00:36:37.113Z,99508
2018-03-11T00:39:05.047Z,99495
2018-03-11T00:41:32.948Z,99501
2018-03-11T00:44:00.852Z,99502
2018-03-11T00:46:28.745Z,99496
2018-03-11T00:48:56.651Z,99489
2018-03-11T00:51:24.560Z,99494
2018-03-11T00:53:52.460Z,99489
2018-03-11T00:56:20.352Z,99484
2018-03-11T00:58:48.245Z,99488
2018-03-11T01:01:16.144Z,99484
2018-03-11T01:03:44.037Z,99476
2018-03-11T01:06:11.985Z,99476
2018-03-11T01:08:39.897Z,99467
2018-03-11T01:11:07.809Z,99479
2018-03-11T01:13:35.734Z,99461
2018-03-11T01:16:03.646Z,99467
2018-03-11T01:18:31.576Z,99465
2018-03-11T01:20:59.524Z,99453
2018-03-11T01:23:27.432Z,99459
2018-03-11T01:25:55.332Z,99461
2018-03-11T01:28:23.232Z,99456
2018-03-11T01:30:51.157Z,99447
2018-03-11T01:33:19.073Z,99451
2018-03-11T01:35:46.988Z,99438
2018-03-11T01:38:14.888Z,99437
2018-03-11T01:40:42.790Z,99431
2018-03-11T01:43:10.703Z,99438
2018-03-11T01:45:38.636Z,99431
2018-03-11T01:48:06.534Z,99439
2018-03-11T01:50:34.456Z,99441
2018-03-11T01:53:07.287Z,99437
2018-03-11T01:55:35.201Z,99434
2018-03-11T01:58:03.528Z,99430
2018-03-11T02:00:31.432Z,99431
2018-03-11T02:02:59.358Z,99435
2018-03-11T02:05:27.264Z,99427
2018-03-11T02:07:55.184Z,99427
2018-03-11T02:10:23.091Z,99417
2018-03-11T02:12:51.008Z,99415
2018-03-11T02:15:18.927Z,99415
2018-03-11T02:17:46.832Z,99422
2018-03-11T02:20:14.946Z,99410
2018-03-11T02:22:42.832Z,99423
2018-03-11T02:25:10.728Z,99413
2018-03-11T02:27:38.636Z,99399
2018-03-11T02:30:06.546Z,99408
2018-03-11T02:32:34.450Z,99410
2018-03-11T02:35:02.385Z,99405
2018-03-11T02:37:30.840Z,99409
2018-03-11T02:39:58.752Z,99409
2018-03-11T02:42:26.648Z,99407
2018-03-11T02:44:54.549Z,99406
2018-03-11T02:47:22.454Z,99407
2018-03-11T02:49:50.372Z,99414
2018-03-11T02:52:18.286Z,99419
2018-03-11T02:54:46.188Z,99411
2018-03-11T02:57:14.089Z,99412
2018-03-11T02:59:41.989Z,99414
2018-03-11T03:02:09.897Z,99412
2018-03-11T03:04:37.793Z,99416
2018-03-11T03:07:05.696Z,99416
2018-03-11T03:09:33.925Z,99412
2018-03-11T03:12:01.824Z,99418
2018-03-11T03:14:29.723Z,99403
2018-03-11T03:16:57.664Z,99407
2018-03-11T03:19:25.620Z,99403
2018-03-11T03:21:53.495Z,99405
2018-03-11T03:24:21.440Z,99398
2018-03-11T03:26:49.737Z,99393
2018-03-11T03:29:17.664Z,99401
2018-03-11T03:31:45.561Z,99406
2018-03-11T03:34:13.456Z,99401
2018-03-11T03:36:41.357Z,99410
2018-03-11T03:39:09.260Z,99406
2018-03-11T03:41:37.185Z,99396
2018-03-11T03:44:05.090Z,99397
2018-03-11T03:46:32.988Z,99392
2018-03-11T03:49:00.891Z,99395
2018-03-11T03:51:28.799Z,99396
2018-03-11T03:53:56.710Z,99398
2018-03-11T03:56:24.617Z,99399
2018-03-11T03:58:52.537Z,99396
2018-03-11T04:01:21.794Z,99393
2018-03-11T04:03:49.696Z,99384
2018-03-11T04:06:17.602Z,99389
2018-03-11T04:08:45.512Z,99388
2018-03-11T04:11:13.420Z,99377
2018-03-11T04:13:41.320Z,99386
2018-03-11T04:16:09.220Z,99389
2018-03-11T04:18:37.164Z,99388
2018-03-11T04:21:05.068Z,99379
2018-03-11T04:23:32.954Z,99382
2018-03-11T04:26:00.844Z,99383
2018-03-11T04:28:28.773Z,99378
2018-03-11T04:30:56.685Z,99382
2018-03-11T04:33:24.597Z,99376
2018-03-11T04:35:52.502Z,99380
2018-03-11T04:38:20.425Z,99380
2018-03-11T04:40:48.316Z,99379
2018-03-11T04:43:16.216Z,99380
2018-03-11T04:45:44.145Z,99377
2018-03-11T04:48:12.032Z,99370
2018-03-11T04:50:39.933Z,99369
2018-03-11T04:53:08.343Z,99368
2018-03-11T04:55:36.260Z,99372
2018-03-11T04:58:04.180Z,99365
2018-03-11T05:00:32.077Z,99361
2018-03-11T05:02:59.980Z,99365
2018-03-11T05:05:27.892Z,99369
2018-03-11T05:07:55.784Z,99366
2018-03-11T05:10:23.685Z,99361
2018-03-11T05:12:51.589Z,99364
2018-03-11T05:15:19.484Z,99353
2018-03-11T05:17:47.388Z,99349
2018-03-11T05:20:15.284Z,99347
2018-03-11T05:22:43.185Z,99351
2018-03-11T05:25:11.093Z,99343
2018-03-11T05:27:39.598Z,99349
2018-03-11T05:30:07.517Z,99331
2018-03-11T05:32:35.421Z,99335
2018-03-11T05:35:03.328Z,99340
2018-03-11T05:37:31.248Z,99336
2018-03-11T05:39:59.144Z,99335
2018-03-11T05:42:27.045Z,99342
2018-03-11T05:44:54.932Z,99334
2018-03-11T05:47:22.837Z,99333
2018-03-11T05:49:50.738Z,99338
2018-03-11T05:52:18.642Z,99343
2018-03-11T05:54:46.842Z,99339
2018-03-11T05:57:14.741Z,99340
2018-03-11T05:59:42.665Z,99348
2018-03-11T06:02:10.844Z,99348
2018-03-11T06:04:38.758Z,99349
2018-03-11T06:07:06.665Z,99348
2018-03-11T06:09:34.564Z,99345
2018-03-11T06:12:02.464Z,99344
2018-03-11T06:14:30.364Z,99362
2018-03-11T06:16:58.268Z,99354
2018-03-11T06:19:26.173Z,99356
2018-03-11T06:21:54.070Z,99352
2018-03-11T06:24:21.972Z,99362
2018-03-11T06:26:49.869Z,99351
2018-03-11T06:29:17.785Z,99355
2018-03-11T06:31:45.699Z,99355
2018-03-11T06:34:13.589Z,99358
2018-03-11T06:36:41.520Z,99347
2018-03-11T06:39:09.564Z,99350
2018-03-11T06:41:37.455Z,99340
2018-03-11T06:44:05.366Z,99340
2018-03-11T06:46:33.289Z,99340
2018-03-11T06:49:01.191Z,99338
2018-03-11T06:51:29.084Z,99337
2018-03-11T06:53:57.505Z,99339
2018-03-11T06:56:25.404Z,99340
2018-03-11T06:58:53.309Z,99334
2018-03-11T07:01:21.241Z,99334
2018-03-11T07:03:49.195Z,99329
2018-03-11T07:06:17.066Z,99325
2018-03-11T07:08:44.960Z,99326
2018-03-11T07:11:12.844Z,99325
2018-03-11T07:13:40.736Z,99320
2018-03-11T07:16:08.649Z,99323
2018-03-11T07:18:36.550Z,99330
2018-03-11T07:21:04.437Z,99331
2018-03-11T07:23:32.359Z,99324
2018-03-11T07:26:00.678Z,99326
2018-03-11T07:28:28.569Z,99324
2018-03-11T07:30:56.464Z,99325
2018-03-11T07:33:24.370Z,99323
2018-03-11T07:35:52.273Z,99325
2018-03-11T07:38:20.193Z,99318
2018-03-11T07:40:48.094Z,99312
2018-03-11T07:43:16.020Z,99309
2018-03-11T07:45:43.912Z,99317
2018-03-11T07:48:11.854Z,99321
2018-03-11T07:50:39.757Z,99309
2018-03-11T07:53:07.956Z,99318
2018-03-11T07:55:35.868Z,99317
2018-03-11T07:58:03.781Z,99317
2018-03-11T08:00:31.693Z,99318
2018-03-11T08:02:59.618Z,99318
2018-03-11T08:05:27.532Z,99306
2018-03-11T08:07:55.431Z,99311
2018-03-11T08:10:23.336Z,99311
2018-03-11T08:12:51.231Z,99326
2018-03-11T08:15:19.140Z,99316
2018-03-11T08:17:47.048Z,99326
2018-03-11T08:20:14.990Z,99316
2018-03-11T08:22:42.861Z,99325
2018-03-11T08:25:10.764Z,99326
2018-03-11T08:27:39.312Z,99315
2018-03-11T08:30:07.224Z,99314
2018-03-11T08:32:35.131Z,99306
2018-03-11T08:35:03.060Z,99310
2018-03-11T08:37:31.000Z,99304
2018-03-11T08:39:58.905Z,99295
2018-03-11T08:42:26.801Z,99288
2018-03-11T08:44:54.734Z,99298
2018-03-11T08:47:22.774Z,99310
2018-03-11T08:49:50.696Z,99308
2018-03-11T08:52:18.602Z,99295
2018-03-11T08:54:46.854Z,99296
2018-03-11T08:57:14.764Z,99299
2018-03-11T08:59:42.656Z,99292
2018-03-11T09:02:10.584Z,99295
2018-03-11T09:04:39.209Z,99297
2018-03-11T09:07:07.107Z,99290
2018-03-11T09:09:35.016Z,99285
2018-03-11T09:12:03.019Z,99275
2018-03-11T09:14:30.920Z,99269
2018-03-11T09:16:58.824Z,99269
2018-03-11T09:19:26.730Z,99272
2018-03-11T09:21:54.628Z,99269
2018-03-11T09:24:22.552Z,99262
2018-03-11T09:26:51.133Z,99268
2018-03-11T09:29:19.068Z,99263
2018-03-11T09:31:46.981Z,99265
2018-03-11T09:34:14.876Z,99266
2018-03-11T09:36:42.777Z,99261
2018-03-11T09:39:10.685Z,99260
2018-03-11T09:41:38.618Z,99266
2018-03-11T09:44:06.517Z,99257
2018-03-11T09:46:34.412Z,99265
2018-03-11T09:49:02.325Z,99263
2018-03-11T09:51:30.552Z,99268
2018-03-11T09:53:58.481Z,99273
2018-03-11T09:56:26.387Z,99276
2018-03-11T09:58:54.297Z,99271
2018-03-11T10:01:22.227Z,99269
2018-03-11T10:03:50.131Z,99268
2018-03-11T10:06:18.045Z,99265
2018-03-11T10:08:45.973Z,99266
2018-03-11T10:11:13.882Z,99258
2018-03-11T10:13:41.784Z,99252
2018-03-11T10:16:09.700Z,99252
2018-03-11T10:18:37.603Z,99247
2018-03-11T10:21:05.512Z,99245
2018-03-11T10:23:33.418Z,99239
2018-03-11T10:26:01.466Z,99236
2018-03-11T10:28:29.360Z,99241
2018-03-11T10:30:57.272Z,99228
2018-03-11T10:33:25.170Z,99216
2018-03-11T10:35:53.069Z,99210
2018-03-11T10:38:20.983Z,99211
2018-03-11T10:40:48.884Z,99205
2018-03-11T10:43:16.788Z,99205
2018-03-11T10:45:44.697Z,99203
2018-03-11T10:48:12.602Z,99196
2018-03-11T10:50:40.513Z,99211
2018-03-11T10:53:08.417Z,99205
2018-03-11T10:55:36.659Z,99188
2018-03-11T10:58:04.540Z,99171
2018-03-11T11:00:38.534Z,99179
2018-03-11T11:03:12.418Z,99186
2018-03-11T11:05:40.349Z,99175
2018-03-11T11:08:08.260Z,99163
2018-03-11T11:10:36.164Z,99166
2018-03-11T11:13:04.060Z,99173
2018-03-11T11:15:31.964Z,99168
2018-03-11T11:17:59.913Z,99170
2018-03-11T11:20:28.093Z,99176
2018-03-11T11:22:56.021Z,99179
2018-03-11T11:25:23.929Z,99188
2018-03-11T11:27:51.830Z,99191
2018-03-11T11:30:19.737Z,99194
2018-03-11T11:32:47.632Z,99194
2018-03-11T11:35:15.527Z,99185
2018-03-11T11:37:43.444Z,99190
2018-03-11T11:40:11.344Z,99187
2018-03-11T11:42:39.241Z,99193
2018-03-11T11:45:07.146Z,99185
2018-03-11T11:47:35.040Z,99184
2018-03-11T11:50:02.935Z,99179
2018-03-11T11:52:31.197Z,99168
2018-03-11T11:54:59.091Z,99162
2018-03-11T11:57:27.000Z,99152
2018-03-11T11:59:54.905Z,99144
2018-03-11T12:02:22.796Z,99134
2018-03-11T12:04:50.696Z,99141
2018-03-11T12:07:18.587Z,99148
2018-03-11T12:09:46.484Z,99144
2018-03-11T12:12:14.472Z,99141
2018-03-11T12:14:42.333Z,99131
2018-03-11T12:17:10.236Z,99130
2018-03-11T12:19:38.648Z,99128
2018-03-11T12:22:06.553Z,99126
2018-03-11T12:24:34.472Z,99121
2018-03-11T12:27:02.365Z,99136
2018-03-11T12:29:30.254Z,99128
2018-03-11T12:31:58.168Z,99121
2018-03-11T12:34:26.135Z,99115
2018-03-11T12:36:54.001Z,99112
2018-03-11T12:39:21.892Z,99108
2018-03-11T12:41:49.799Z,99116
2018-03-11T12:44:17.696Z,99120
2018-03-11T12:46:45.596Z,99112
2018-03-11T12:49:13.500Z,99118
2018-03-11T12:51:41.673Z,99114
2018-03-11T12:54:09.577Z,99110
2018-03-11T12:56:37.476Z,99108
2018-03-11T12:59:05.381Z,99109
2018-03-11T13:01:33.284Z,99100
2018-03-11T13:04:01.185Z,99095
2018-03-11T13:06:29.084Z,99092
2018-03-11T13:08:57.024Z,99094
2018-03-11T13:11:24.926Z,99097
2018-03-11T13:13:52.825Z,99094
2018-03-11T13:16:20.747Z,99095
2018-03-11T13:18:48.661Z,99080
2018-03-11T13:21:16.588Z,99082
2018-03-11T13:23:44.497Z,99081
2018-03-11T13:26:12.682Z,99081
2018-03-11T13:28:45.492Z,99068
2018-03-11T13:31:13.404Z,99060
2018-03-11T13:33:53.609Z,99068
2018-03-11T13:36:21.514Z,99066
2018-03-11T13:39:01.774Z,99068
2018-03-11T13:41:29.696Z,99075
2018-03-11T13:43:57.600Z,99072
2018-03-11T13:46:37.760Z,99066
2018-03-11T13:49:05.697Z,99062
2018-03-11T13:51:46.028Z,99052
2018-03-11T13:54:13.980Z,99038
2018-03-11T13:56:42.277Z,99055
2018-03-11T13:59:10.170Z,99055
2018-03-11T14:01:38.064Z,99052
2018-03-11T14:04:05.995Z,99039
2018-03-11T14:06:33.938Z,99031
2018-03-11T14:09:01.837Z,99029
2018-03-11T14:11:29.733Z,99011
2018-03-11T14:13:57.637Z,99016
2018-03-11T14:16:25.549Z,99029
2018-03-11T14:18:53.503Z,99022
2018-03-11T14:21:21.557Z,99026
2018-03-11T14:23:49.483Z,99029
2018-03-11T14:26:17.380Z,99021
2018-03-11T14:28:45.291Z,99024
2018-03-11T14:31:13.209Z,99027
2018-03-11T14:33:41.119Z,99017
2018-03-11T14:36:09.012Z,99001
2018-03-11T14:38:36.947Z,98994
2018-03-11T14:41:04.853Z,98983
2018-03-11T14:43:32.776Z,98987
2018-03-11T14:46:00.695Z,98988
2018-03-11T14:48:28.609Z,98979
2018-03-11T14:50:56.508Z,98987
2018-03-11T14:53:24.412Z,98981
2018-03-11T14:55:52.553Z,98978
2018-03-11T14:58:20.473Z,98968
2018-03-11T15:00:48.408Z,98970
2018-03-11T15:03:16.308Z,98968
2018-03-11T15:05:44.205Z,98968
2018-03-11T15:08:12.152Z,98958
2018-03-11T15:10:40.069Z,98961
2018-03-11T15:13:08.028Z,98946
2018-03-11T15:15:35.931Z,98955
2018-03-11T15:18:03.828Z,98961
2018-03-11T15:20:31.729Z,98966
2018-03-11T15:23:00.189Z,98950
2018-03-11T15:25:28.085Z,98939
2018-03-11T15:27:55.983Z,98941
2018-03-11T15:30:23.894Z,98935
2018-03-11T15:32:51.844Z,98932
2018-03-11T15:35:19.802Z,98932
2018-03-11T15:37:47.723Z,98925
2018-03-11T15:40:15.616Z,98919
2018-03-11T15:42:43.516Z,98912
2018-03-11T15:45:11.425Z,98909
2018-03-11T15:47:39.361Z,98916
2018-03-11T15:50:07.335Z,98908
2018-03-11T15:52:35.193Z,98920
2018-03-11T15:55:03.119Z,98912
2018-03-11T15:57:31.333Z,98913
2018-03-11T15:59:59.213Z,98902
2018-03-11T16:02:27.142Z,98903
2018-03-11T16:04:55.049Z,98913
2018-03-11T16:07:22.952Z,98906
2018-03-11T16:09:50.868Z,98907
2018-03-11T16:12:18.781Z,98907
2018-03-11T16:14:46.680Z,98907
2018-03-11T16:17:14.656Z,98908
2018-03-11T16:19:42.602Z,98916
2018-03-11T16:22:10.496Z,98899
2018-03-11T16:24:39.725Z,98912
2018-03-11T16:27:06.705Z,98903
2018-03-11T16:29:34.612Z,98902
2018-03-11T16:32:02.532Z,98907
2018-03-11T16:34:30.489Z,98902
2018-03-11T16:36:58.362Z,98901
2018-03-11T16:39:26.271Z,98905
2018-03-11T16:41:54.305Z,98910
2018-03-11T16:44:22.218Z,98907
2018-03-11T16:46:50.117Z,98921
2018-03-11T16:49:18.029Z,98917
2018-03-11T16:51:45.927Z,98915
2018-03-11T16:54:13.862Z,98922
2018-03-11T16:56:41.768Z,98918
2018-03-11T16:59:09.697Z,98913
2018-03-11T17:01:37.587Z,98925
2018-03-11T17:04:05.493Z,98917
2018-03-11T17:06:33.444Z,98900
2018-03-11T17:09:01.860Z,98929
2018-03-11T17:11:29.752Z,98930
2018-03-11T17:13:57.665Z,98934
2018-03-11T17:16:25.584Z,98933
2018-03-11T17:18:53.484Z,98931
2018-03-11T17:21:21.384Z,98930
2018-03-11T17:23:49.297Z,98937
2018-03-11T17:26:17.200Z,98930
2018-03-11T17:28:45.094Z,98941
2018-03-11T17:31:13.484Z,98939
2018-03-11T17:33:41.404Z,98947
2018-03-11T17:36:09.425Z,98950
2018-03-11T17:38:37.334Z,98945
2018-03-11T17:41:05.241Z,98948
2018-03-11T17:43:33.148Z,98937
2018-03-11T17:46:01.044Z,98945
2018-03-11T17:48:28.949Z,98951
2018-03-11T17:50:56.992Z,98948
2018-03-11T17:53:24.891Z,98946
2018-03-11T17:55:52.803Z,98944
2018-03-11T17:58:20.704Z,98954
2018-03-11T18:00:48.616Z,98952
2018-03-11T18:03:16.520Z,98943
2018-03-11T18:05:44.432Z,98944
2018-03-11T18:08:12.361Z,98942
2018-03-11T18:10:40.278Z,98946
2018-03-11T18:13:08.186Z,98951
2018-03-11T18:15:36.080Z,98937
2018-03-11T18:18:03.984Z,98951
2018-03-11T18:20:31.904Z,98954
2018-03-11T18:22:59.925Z,98963
2018-03-11T18:25:27.841Z,98956
2018-03-11T18:27:55.744Z,98948
2018-03-11T18:30:23.640Z,98961
2018-03-11T18:32:51.545Z,98966
2018-03-11T18:35:19.452Z,98954
2018-03-11T18:37:47.359Z,98946
2018-03-11T18:40:15.272Z,98955
2018-03-11T18:42:43.174Z,98951
2018-03-11T18:45:11.068Z,98951
2018-03-11T18:47:38.968Z,98949
2018-03-11T18:50:06.872Z,98955
2018-03-11T18:52:35.108Z,98947
2018-03-11T18:55:03.017Z,98947
2018-03-11T18:57:30.916Z,98954
2018-03-11T18:59:58.811Z,98947
2018-03-11T19:02:26.705Z,98945
2018-03-11T19:04:54.600Z,98943
2018-03-11T19:07:22.500Z,98944
2018-03-11T19:09:50.394Z,98934
2018-03-11T19:12:18.293Z,98938
2018-03-11T19:14:46.185Z,98947
2018-03-11T19:17:14.077Z,98943
2018-03-11T19:19:41.989Z,98954
2018-03-11T19:22:10.242Z,98965
2018-03-11T19:24:38.149Z,98965
2018-03-11T19:27:06.062Z,98974
2018-03-11T19:29:33.968Z,98975
2018-03-11T19:32:01.880Z,98972
2018-03-11T19:34:29.836Z,98975
2018-03-11T19:36:57.712Z,98967
2018-03-11T19:39:25.621Z,98963
2018-03-11T19:41:53.541Z,98962
2018-03-11T19:44:21.433Z,98966
2018-03-11T19:46:49.366Z,98972
2018-03-11T19:49:17.273Z,98970
2018-03-11T19:51:45.192Z,98968
2018-03-11T19:54:13.085Z,98974
2018-03-11T19:56:40.973Z,98971
2018-03-11T19:59:08.881Z,98961
2018-03-11T20:01:36.779Z,98958
2018-03-11T20:04:04.737Z,98961
2018-03-11T20:06:32.632Z,98955
2018-03-11T20:09:00.925Z,98954
2018-03-11T20:11:28.810Z,98951
2018-03-11T20:13:56.736Z,98965
2018-03-11T20:16:24.636Z,98964
2018-03-11T20:18:52.536Z,98955
2018-03-11T20:21:20.432Z,98952
2018-03-11T20:23:48.340Z,98952
2018-03-11T20:26:16.258Z,98950
2018-03-11T20:28:44.149Z,98946
2018-03-11T20:31:12.041Z,98950
2018-03-11T20:33:39.953Z,98946
2018-03-11T20:36:07.856Z,98951
2018-03-11T20:38:35.760Z,98961
2018-03-11T20:41:03.676Z,98950
2018-03-11T20:43:31.580Z,98955
2018-03-11T20:45:59.485Z,98962
2018-03-11T20:48:27.400Z,98958
2018-03-11T20:50:55.797Z,98956
2018-03-11T20:53:23.706Z,98958
2018-03-11T20:55:51.614Z,98956
2018-03-11T20:58:19.516Z,98951
2018-03-11T21:00:54.417Z,98948
2018-03-11T21:03:22.357Z,98943
2018-03-11T21:05:50.269Z,98939
2018-03-11T21:08:18.161Z,98938
2018-03-11T21:10:46.061Z,98931
2018-03-11T21:13:13.956Z,98937
2018-03-11T21:15:41.861Z,98925
2018-03-11T21:18:09.794Z,98923
2018-03-11T21:20:37.693Z,98925
2018-03-11T21:23:05.596Z,98919
2018-03-11T21:25:33.530Z,98911
2018-03-11T21:28:01.427Z,98912
2018-03-11T21:30:29.804Z,98919
2018-03-11T21:33:04.641Z,98916
2018-03-11T21:35:32.550Z,98918
2018-03-11T21:38:00.445Z,98917
2018-03-11T21:40:28.353Z,98907
2018-03-11T21:42:56.369Z,98912
2018-03-11T21:46:16.481Z,98902
2018-03-11T21:48:44.413Z,98904
2018-03-11T21:51:12.312Z,98907
2018-03-11T21:53:40.204Z,98905
2018-03-11T21:56:08.126Z,98899
2018-03-11T21:58:36.016Z,98894
2018-03-11T22:01:03.932Z,98896
2018-03-11T22:03:31.838Z,98891
2018-03-11T22:05:59.744Z,98889
2018-03-11T22:08:27.641Z,98895
2018-03-11T22:10:55.540Z,98895
2018-03-11T22:13:23.457Z,98894
2018-03-11T22:15:51.367Z,98897
2018-03-11T22:18:19.299Z,98900
2018-03-11T22:20:47.200Z,98892
2018-03-11T22:23:15.104Z,98882
2018-03-11T22:25:43.028Z,98879
2018-03-11T22:28:10.941Z,98892
2018-03-11T22:30:38.844Z,98879
2018-03-11T22:33:06.747Z,98877
2018-03-11T22:35:34.644Z,98869
2018-03-11T22:38:02.549Z,98870
2018-03-11T22:40:30.445Z,98868
2018-03-11T22:42:58.349Z,98873
2018-03-11T22:45:26.254Z,98877
2018-03-11T22:47:54.153Z,98872
2018-03-11T22:50:22.073Z,98864
2018-03-11T22:52:50.600Z,98859
2018-03-11T22:55:18.496Z,98856
2018-03-11T22:57:46.392Z,98865
2018-03-11T23:00:14.298Z,98861
2018-03-11T23:02:42.191Z,98838
2018-03-11T23:05:10.097Z,98853
2018-03-11T23:07:38.008Z,98839
2018-03-11T23:10:05.912Z,98843
2018-03-11T23:12:33.816Z,98842
2018-03-11T23:15:01.725Z,98837
2018-03-11T23:17:29.620Z,98833
2018-03-11T23:19:57.521Z,98836
2018-03-11T23:22:25.413Z,98830
2018-03-11T23:24:53.657Z,98832
2018-03-11T23:27:21.560Z,98835
2018-03-11T23:29:49.466Z,98832
2018-03-11T23:32:17.368Z,98829
2018-03-11T23:34:45.276Z,98831
2018-03-11T23:37:13.169Z,98824
2018-03-11T23:39:41.088Z,98820
2018-03-11T23:42:08.985Z,98814
2018-03-11T23:44:37.043Z,98815
2018-03-11T23:47:04.968Z,98815
2018-03-11T23:49:32.905Z,98808
2018-03-11T23:52:00.845Z,98810
2018-03-11T23:54:29.330Z,98810
2018-03-11T23:56:57.221Z,98813
2018-03-11T23:59:25.128Z,98802
